Time;durP1;ratioP1;P1;durP2;ratioP2;P2;SDS_P1;SDS_P2;PMS_P1;PMS_P2;Temp;Humidity;BMP_temperature;BMP_pressure;BME280_temperature;BME280_humidity;BME280_pressure;Samples;Min_cycle;Max_cycle;Signal;HPM_P1;HPM_P2
2021/07/26 00:01:42;;;;;;;3.60;2.40;;;;;;;;;;4992090;28;20030;-81
2021/07/26 00:04:10;;;;;;;4.30;2.53;;;;;;;;;;4996889;28;20034;-81
2021/07/26 00:06:35;;;;;;;4.30;2.80;;;;;;;;;;4998116;28;20364;-81
2021/07/26 00:09:00;;;;;;;4.13;2.45;;;;;;;;;;5016769;28;20037;-80
2021/07/26 00:11:26;;;;;;;4.53;2.53;;;;;;;;;;4985952;28;20068;-82
2021/07/26 00:13:51;;;;;;;4.90;2.60;;;;;;;;;;5015629;28;20082;-80
2021/07/26 00:16:17;;;;;;;4.10;2.67;;;;;;;;;;4998304;28;20125;-82
2021/07/26 00:18:42;;;;;;;4.45;2.63;;;;;;;;;;4998375;28;20485;-82
2021/07/26 00:21:07;;;;;;;4.13;2.55;;;;;;;;;;5000098;28;20495;-82
2021/07/26 00:23:33;;;;;;;4.25;2.28;;;;;;;;;;4999890;28;20026;-82
2021/07/26 00:25:58;;;;;;;5.18;2.50;;;;;;;;;;5023863;28;20026;-81
2021/07/26 00:28:23;;;;;;;5.03;2.50;;;;;;;;;;5034776;28;20025;-79
2021/07/26 00:30:49;;;;;;;4.70;2.88;;;;;;;;;;5027339;28;20036;-80
2021/07/26 00:33:57;;;;;;;4.00;2.33;;;;;;;;;;5024197;28;20045;-79
2021/07/26 00:36:23;;;;;;;3.70;2.40;;;;;;;;;;5009516;28;20451;-79
2021/07/26 00:38:48;;;;;;;6.95;2.35;;;;;;;;;;5018857;28;20034;-80
2021/07/26 00:41:16;;;;;;;3.70;2.40;;;;;;;;;;4979682;28;20029;-83
2021/07/26 00:43:43;;;;;;;3.67;2.47;;;;;;;;;;4995104;28;20495;-82
2021/07/26 00:46:09;;;;;;;3.58;2.60;;;;;;;;;;4994787;28;20054;-81
2021/07/26 00:48:34;;;;;;;5.47;2.78;;;;;;;;;;4995177;28;20076;-83
2021/07/26 00:51:02;;;;;;;4.95;2.65;;;;;;;;;;4979479;28;20428;-82
2021/07/26 00:53:28;;;;;;;3.60;2.30;;;;;;;;;;4995358;28;20064;-82
2021/07/26 00:55:53;;;;;;;5.38;2.70;;;;;;;;;;5012923;28;20053;-82
2021/07/26 00:58:18;;;;;;;6.20;2.65;;;;;;;;;;4979802;28;20041;-81
2021/07/26 01:00:44;;;;;;;5.18;2.45;;;;;;;;;;4980186;28;20042;-81
2021/07/26 01:03:09;;;;;;;4.40;2.40;;;;;;;;;;4997404;28;20026;-83
2021/07/26 01:05:35;;;;;;;4.68;2.58;;;;;;;;;;4984850;28;20550;-83
2021/07/26 01:08:00;;;;;;;3.75;2.40;;;;;;;;;;5012156;28;20025;-83
2021/07/26 01:10:26;;;;;;;3.10;2.33;;;;;;;;;;5012930;28;20044;-83
2021/07/26 01:12:51;;;;;;;4.22;2.60;;;;;;;;;;5033530;28;20021;-83
2021/07/26 01:15:17;;;;;;;3.50;2.17;;;;;;;;;;4999716;28;20033;-80
2021/07/26 01:18:02;;;;;;;3.63;2.40;;;;;;;;;;5000455;28;20100;-83
2021/07/26 01:20:28;;;;;;;4.90;2.72;;;;;;;;;;5017496;28;20025;-83
2021/07/26 01:22:53;;;;;;;7.78;2.72;;;;;;;;;;5000798;28;20112;-83
2021/07/26 01:25:19;;;;;;;4.50;2.63;;;;;;;;;;5001325;28;20052;-83
2021/07/26 01:27:44;;;;;;;4.07;2.78;;;;;;;;;;5002136;28;20034;-83
2021/07/26 01:30:10;;;;;;;3.67;2.60;;;;;;;;;;5027093;28;20615;-80
2021/07/26 01:32:35;;;;;;;6.00;2.70;;;;;;;;;;5013542;28;20036;-79
2021/07/26 01:35:00;;;;;;;4.80;2.60;;;;;;;;;;5029861;28;20025;-80
2021/07/26 01:37:28;;;;;;;6.20;2.65;;;;;;;;;;5045622;28;20076;-79
2021/07/26 01:39:53;;;;;;;4.65;2.70;;;;;;;;;;5030902;28;20055;-78
2021/07/26 01:42:19;;;;;;;5.57;2.70;;;;;;;;;;5028420;28;20303;-79
2021/07/26 01:44:44;;;;;;;3.88;2.55;;;;;;;;;;5013281;28;20033;-79
2021/07/26 01:47:13;;;;;;;4.70;2.40;;;;;;;;;;5018531;28;20041;-80
2021/07/26 01:49:50;;;;;;;3.40;2.30;;;;;;;;;;5026434;28;20480;-80
2021/07/26 01:52:17;;;;;;;4.13;2.38;;;;;;;;;;5015776;28;20030;-81
2021/07/26 01:54:42;;;;;;;5.45;2.97;;;;;;;;;;5015402;28;20040;-81
2021/07/26 01:57:08;;;;;;;4.15;2.80;;;;;;;;;;4998491;28;20033;-82
2021/07/26 01:59:34;;;;;;;4.28;2.95;;;;;;;;;;4997816;28;20431;-82
2021/07/26 02:01:59;;;;;;;4.07;2.55;;;;;;;;;;4998532;28;20033;-82
2021/07/26 02:04:24;;;;;;;6.30;2.90;;;;;;;;;;4998839;28;20029;-81
2021/07/26 02:06:50;;;;;;;4.53;2.97;;;;;;;;;;4998627;28;20799;-82
2021/07/26 02:09:15;;;;;;;4.30;2.85;;;;;;;;;;5015803;28;20041;-82
2021/07/26 02:11:41;;;;;;;4.68;2.80;;;;;;;;;;4999084;28;20527;-80
2021/07/26 02:14:09;;;;;;;5.72;2.83;;;;;;;;;;4999435;28;20040;-81
2021/07/26 02:16:35;;;;;;;4.65;2.60;;;;;;;;;;4999475;28;20025;-80
2021/07/26 02:19:01;;;;;;;6.03;2.80;;;;;;;;;;5015234;28;20042;-80
2021/07/26 02:21:26;;;;;;;6.63;3.03;;;;;;;;;;4998583;28;20082;-82
2021/07/26 02:23:51;;;;;;;5.15;2.80;;;;;;;;;;5015054;28;20030;-82
2021/07/26 02:26:17;;;;;;;4.75;2.90;;;;;;;;;;4998350;28;20364;-80
2021/07/26 02:28:42;;;;;;;5.70;2.90;;;;;;;;;;5015345;28;20492;-81
2021/07/26 02:31:07;;;;;;;6.57;2.97;;;;;;;;;;5016132;28;20403;-80
2021/07/26 02:33:33;;;;;;;6.15;3.10;;;;;;;;;;5032140;28;20045;-80
2021/07/26 02:35:58;;;;;;;4.88;3.05;;;;;;;;;;4994746;28;20067;-81
2021/07/26 02:38:26;;;;;;;7.25;2.92;;;;;;;;;;4995056;28;20044;-81
2021/07/26 02:40:51;;;;;;;4.65;2.90;;;;;;;;;;5007881;28;20030;-80
2021/07/26 02:43:16;;;;;;;4.75;2.70;;;;;;;;;;4990838;28;20120;-81
2021/07/26 02:45:43;;;;;;;3.97;2.67;;;;;;;;;;5015756;28;20115;-81
2021/07/26 02:48:11;;;;;;;4.95;2.72;;;;;;;;;;5016417;28;20631;-81
2021/07/26 02:50:39;;;;;;;6.07;3.00;;;;;;;;;;5031937;28;20032;-80
2021/07/26 02:53:04;;;;;;;6.43;2.97;;;;;;;;;;5032858;28;20029;-81
2021/07/26 02:55:32;;;;;;;5.32;2.97;;;;;;;;;;5031964;28;20037;-80
2021/07/26 02:57:57;;;;;;;5.53;3.03;;;;;;;;;;5032909;28;20082;-80
2021/07/26 03:00:23;;;;;;;4.38;2.70;;;;;;;;;;5033137;28;20036;-81
2021/07/26 03:02:48;;;;;;;5.03;3.03;;;;;;;;;;5017703;28;20017;-82
2021/07/26 03:05:13;;;;;;;4.68;2.80;;;;;;;;;;5033207;28;20044;-80
2021/07/26 03:07:39;;;;;;;4.35;2.72;;;;;;;;;;5033487;28;20033;-82
2021/07/26 03:10:04;;;;;;;4.30;2.63;;;;;;;;;;5017368;28;20067;-79
2021/07/26 03:12:30;;;;;;;5.78;3.00;;;;;;;;;;5017234;28;20123;-78
2021/07/26 03:14:55;;;;;;;4.93;2.85;;;;;;;;;;5016068;28;20098;-82
2021/07/26 03:17:24;;;;;;;7.07;3.15;;;;;;;;;;5009682;28;20041;-81
2021/07/26 03:19:51;;;;;;;5.13;2.72;;;;;;;;;;5012591;28;20057;-78
2021/07/26 03:22:24;;;;;;;4.57;2.80;;;;;;;;;;5009206;28;20479;-82
2021/07/26 03:24:50;;;;;;;4.60;2.70;;;;;;;;;;4996998;28;20133;-78
2021/07/26 03:27:15;;;;;;;4.90;2.70;;;;;;;;;;5014270;28;20088;-82
2021/07/26 03:29:40;;;;;;;5.03;2.70;;;;;;;;;;4996909;28;20025;-80
2021/07/26 03:32:08;;;;;;;4.80;3.00;;;;;;;;;;5014459;28;20037;-80
2021/07/26 03:34:36;;;;;;;5.57;3.00;;;;;;;;;;5013853;28;20038;-82
2021/07/26 03:37:01;;;;;;;6.03;2.97;;;;;;;;;;4997521;28;20056;-82
2021/07/26 03:39:29;;;;;;;3.67;2.58;;;;;;;;;;5013365;28;20633;-81
2021/07/26 03:41:58;;;;;;;6.55;3.15;;;;;;;;;;5013825;28;20363;-80
2021/07/26 03:44:25;;;;;;;5.03;2.88;;;;;;;;;;5007099;28;20053;-80
2021/07/26 03:46:51;;;;;;;5.70;3.22;;;;;;;;;;5011443;28;20033;-81
2021/07/26 03:49:16;;;;;;;5.15;2.85;;;;;;;;;;5020323;28;20048;-78
2021/07/26 03:51:44;;;;;;;6.75;3.03;;;;;;;;;;5000891;28;20128;-79
2021/07/26 03:54:09;;;;;;;5.32;2.88;;;;;;;;;;5016903;28;20155;-79
2021/07/26 03:56:37;;;;;;;4.43;2.88;;;;;;;;;;4999229;28;20364;-80
2021/07/26 03:59:02;;;;;;;6.97;3.33;;;;;;;;;;5007992;28;20026;-81
2021/07/26 04:01:28;;;;;;;7.00;3.28;;;;;;;;;;5018655;28;20026;-80
2021/07/26 04:03:53;;;;;;;5.70;2.85;;;;;;;;;;4981359;28;20088;-81
2021/07/26 04:06:20;;;;;;;5.13;2.95;;;;;;;;;;5016176;28;20049;-81
2021/07/26 04:08:48;;;;;;;5.90;2.95;;;;;;;;;;5004357;28;20010;-79
2021/07/26 04:11:19;;;;;;;4.75;3.10;;;;;;;;;;5004973;28;20420;-81
2021/07/26 04:13:45;;;;;;;4.13;2.70;;;;;;;;;;5011499;28;20040;-79
2021/07/26 04:16:10;;;;;;;4.47;2.60;;;;;;;;;;5005209;28;20033;-81
2021/07/26 04:18:36;;;;;;;3.72;2.60;;;;;;;;;;4994881;28;20030;-81
2021/07/26 04:21:08;;;;;;;5.38;2.78;;;;;;;;;;5012742;28;20041;-81
2021/07/26 04:23:34;;;;;;;3.97;2.80;;;;;;;;;;4995342;28;20033;-81
2021/07/26 04:26:01;;;;;;;5.22;2.55;;;;;;;;;;5015305;28;20166;-81
2021/07/26 04:28:27;;;;;;;5.32;2.53;;;;;;;;;;5011749;28;20030;-81
2021/07/26 04:30:52;;;;;;;4.50;2.80;;;;;;;;;;4995253;28;20168;-81
2021/07/26 04:33:17;;;;;;;4.40;2.70;;;;;;;;;;4979150;28;20061;-80
2021/07/26 04:35:43;;;;;;;5.57;2.90;;;;;;;;;;5003018;28;20497;-81
2021/07/26 04:38:08;;;;;;;4.15;2.78;;;;;;;;;;5009383;28;20025;-81
2021/07/26 04:40:33;;;;;;;4.85;2.90;;;;;;;;;;5008036;28;20434;-80
2021/07/26 04:42:59;;;;;;;4.07;2.80;;;;;;;;;;5015846;28;20152;-81
2021/07/26 04:45:24;;;;;;;6.60;3.10;;;;;;;;;;5001857;28;20037;-81
2021/07/26 04:47:50;;;;;;;6.15;3.05;;;;;;;;;;5000136;28;20064;-79
2021/07/26 04:50:16;;;;;;;6.68;2.72;;;;;;;;;;5000011;28;20041;-80
2021/07/26 04:52:42;;;;;;;5.20;3.00;;;;;;;;;;5035011;28;20608;-79
2021/07/26 04:55:08;;;;;;;3.80;2.60;;;;;;;;;;5016459;28;20029;-79
2021/07/26 04:57:33;;;;;;;4.07;2.63;;;;;;;;;;4999080;28;20017;-80
2021/07/26 04:59:58;;;;;;;4.40;3.13;;;;;;;;;;5016602;28;20040;-81
2021/07/26 05:02:24;;;;;;;4.30;3.00;;;;;;;;;;5002137;28;20037;-80
2021/07/26 05:04:49;;;;;;;4.85;3.08;;;;;;;;;;4999964;28;20716;-78
2021/07/26 05:07:14;;;;;;;4.57;2.80;;;;;;;;;;5030468;28;20479;-73
2021/07/26 05:09:42;;;;;;;5.70;3.42;;;;;;;;;;4995462;28;20385;-73
2021/07/26 05:12:12;;;;;;;3.95;2.60;;;;;;;;;;5025530;28;20045;-75
2021/07/26 05:14:38;;;;;;;4.38;3.28;;;;;;;;;;5027117;28;20053;-73
2021/07/26 05:17:03;;;;;;;4.15;3.13;;;;;;;;;;5011237;28;20484;-74
2021/07/26 05:19:28;;;;;;;4.45;2.70;;;;;;;;;;5013502;28;20038;-77
2021/07/26 05:21:54;;;;;;;4.05;2.58;;;;;;;;;;5031913;28;20025;-80
2021/07/26 05:24:24;;;;;;;4.00;2.60;;;;;;;;;;5011363;28;20045;-79
2021/07/26 05:26:56;;;;;;;3.92;2.60;;;;;;;;;;4994840;28;20034;-78
2021/07/26 05:29:21;;;;;;;5.55;3.00;;;;;;;;;;5015628;28;20061;-77
2021/07/26 05:31:46;;;;;;;5.03;3.05;;;;;;;;;;5000070;28;20463;-77
2021/07/26 05:34:12;;;;;;;6.95;2.90;;;;;;;;;;4993987;28;20025;-74
2021/07/26 05:36:37;;;;;;;5.30;3.00;;;;;;;;;;4976488;28;20100;-75
2021/07/26 05:39:02;;;;;;;4.57;2.75;;;;;;;;;;4992037;28;20033;-74
2021/07/26 05:41:30;;;;;;;6.88;3.28;;;;;;;;;;5022748;28;20025;-75
2021/07/26 05:43:55;;;;;;;7.38;3.38;;;;;;;;;;5007487;28;20601;-75
2021/07/26 05:46:21;;;;;;;4.40;3.13;;;;;;;;;;4987883;28;20079;-76
2021/07/26 05:48:46;;;;;;;7.35;3.00;;;;;;;;;;5013860;28;20038;-77
2021/07/26 05:51:12;;;;;;;5.60;3.30;;;;;;;;;;4993338;28;20080;-76
2021/07/26 05:53:39;;;;;;;4.75;3.20;;;;;;;;;;5006885;28;20040;-76
2021/07/26 05:56:06;;;;;;;5.82;3.20;;;;;;;;;;4998681;28;20029;-76
2021/07/26 05:58:33;;;;;;;6.18;3.10;;;;;;;;;;5010602;28;20033;-76
2021/07/26 06:01:10;;;;;;;6.97;3.20;;;;;;;;;;5023627;28;20033;-75
2021/07/26 06:03:36;;;;;;;5.38;3.20;;;;;;;;;;5019051;28;20033;-76
2021/07/26 06:06:04;;;;;;;5.20;3.10;;;;;;;;;;4991404;28;20037;-76
2021/07/26 06:08:30;;;;;;;6.57;3.17;;;;;;;;;;5016195;28;20093;-77
2021/07/26 06:10:55;;;;;;;4.85;2.90;;;;;;;;;;5012530;28;20033;-79
2021/07/26 06:13:20;;;;;;;7.82;3.13;;;;;;;;;;5025089;28;20068;-79
2021/07/26 06:15:46;;;;;;;5.80;3.00;;;;;;;;;;5002766;28;20115;-78
2021/07/26 06:18:11;;;;;;;3.78;2.85;;;;;;;;;;5023826;28;20526;-79
2021/07/26 06:20:36;;;;;;;5.38;3.33;;;;;;;;;;4991751;28;20030;-79
2021/07/26 06:23:04;;;;;;;4.97;3.17;;;;;;;;;;5016141;28;20034;-79
2021/07/26 06:25:29;;;;;;;9.80;3.20;;;;;;;;;;5002352;28;20025;-78
2021/07/26 06:27:55;;;;;;;7.35;2.70;;;;;;;;;;5004875;28;20029;-79
2021/07/26 06:30:20;;;;;;;4.03;2.60;;;;;;;;;;4997559;28;20037;-80
2021/07/26 06:32:47;;;;;;;5.38;2.70;;;;;;;;;;5000569;28;20026;-77
2021/07/26 06:35:12;;;;;;;3.83;2.55;;;;;;;;;;5015665;28;20031;-80
2021/07/26 06:37:38;;;;;;;5.90;2.70;;;;;;;;;;5000204;28;20120;-76
2021/07/26 06:40:06;;;;;;;4.97;2.40;;;;;;;;;;4997991;28;20060;-78
2021/07/26 06:45:09;;;;;;;4.63;2.70;;;;;;;;;;5030065;28;20038;-81
2021/07/26 06:47:57;;;;;;;3.83;2.58;;;;;;;;;;5000448;28;20101;-81
2021/07/26 06:50:33;;;;;;;4.00;2.80;;;;;;;;;;5001017;28;20049;-81
2021/07/26 06:53:12;;;;;;;3.53;2.53;;;;;;;;;;5007800;28;20034;-81
2021/07/26 06:55:46;;;;;;;5.03;2.80;;;;;;;;;;5001320;28;20033;-81
2021/07/26 06:58:19;;;;;;;5.30;2.42;;;;;;;;;;4999861;28;20118;-81
2021/07/26 07:01:17;;;;;;;;;;;;;;;;;;;;;
2021/07/26 07:03:49;;;;;;;5.20;3.13;;;;;;;;;;5009782;28;20022;-82
2021/07/26 07:06:27;;;;;;;5.68;2.80;;;;;;;;;;4995363;28;20018;-82
2021/07/26 07:09:18;;;;;;;5.22;2.95;;;;;;;;;;5008867;28;20104;-81
2021/07/26 07:11:49;;;;;;;4.55;2.72;;;;;;;;;;4992876;28;20047;-81
2021/07/26 07:14:17;;;;;;;4.43;2.88;;;;;;;;;;5019116;28;20034;-82
2021/07/26 07:17:09;;;;;;;4.40;2.40;;;;;;;;;;4981192;28;20045;-81
2021/07/26 07:19:52;;;;;;;4.75;2.70;;;;;;;;;;4992354;28;20061;-81
2021/07/26 07:22:52;;;;;;;5.05;2.55;;;;;;;;;;4985938;28;20030;-81
2021/07/26 07:25:40;;;;;;;4.72;2.50;;;;;;;;;;4999736;28;20388;-81
2021/07/26 07:28:21;;;;;;;3.92;2.40;;;;;;;;;;5000454;28;20487;-81
2021/07/26 07:31:03;;;;;;;4.43;2.63;;;;;;;;;;4979006;28;20041;-81
2021/07/26 07:33:48;;;;;;;3.45;2.30;;;;;;;;;;4994468;28;20150;-81
2021/07/26 07:36:29;;;;;;;3.83;2.40;;;;;;;;;;5015498;28;20022;-81
2021/07/26 07:39:08;;;;;;;3.07;2.20;;;;;;;;;;5002232;28;20038;-81
2021/07/26 07:42:02;;;;;;;5.45;2.80;;;;;;;;;;5010849;28;20045;-80
2021/07/26 07:44:32;;;;;;;8.23;2.85;;;;;;;;;;4965083;28;20072;-81
2021/07/26 07:47:13;;;;;;;3.65;2.20;;;;;;;;;;4993342;28;20046;-81
2021/07/26 07:49:54;;;;;;;3.17;2.25;;;;;;;;;;4989393;28;22294;-81
2021/07/26 07:53:03;;;;;;;5.55;2.42;;;;;;;;;;4983482;28;20057;-81
2021/07/26 07:56:12;;;;;;;5.20;2.55;;;;;;;;;;4966153;28;20034;-81
2021/07/26 07:58:49;;;;;;;4.10;2.20;;;;;;;;;;4965683;28;20157;-81
2021/07/26 08:01:30;;;;;;;;;;;;;;;;;;;;;
2021/07/26 08:04:40;;;;;;;4.93;2.42;;;;;;;;;;4967854;28;20046;-80
2021/07/26 08:07:19;;;;;;;4.30;2.40;;;;;;;;;;4924181;28;20038;-81
2021/07/26 08:09:53;;;;;;;4.95;2.38;;;;;;;;;;4934125;28;20053;-81
2021/07/26 08:12:18;;;;;;;3.70;2.30;;;;;;;;;;4944242;28;20081;-80
2021/07/26 08:14:44;;;;;;;6.45;2.55;;;;;;;;;;4939434;28;20027;-79
2021/07/26 08:17:09;;;;;;;5.47;2.63;;;;;;;;;;4939093;28;20178;-80
2021/07/26 08:19:37;;;;;;;3.33;2.20;;;;;;;;;;4920845;28;20026;-80
2021/07/26 08:22:03;;;;;;;4.05;2.35;;;;;;;;;;4926623;28;20128;-80
2021/07/26 08:24:29;;;;;;;3.45;2.20;;;;;;;;;;4942747;28;20168;-81
2021/07/26 08:26:54;;;;;;;4.03;2.00;;;;;;;;;;4942473;28;20057;-80
2021/07/26 08:29:19;;;;;;;3.35;2.10;;;;;;;;;;4964179;28;20045;-81
2021/07/26 08:31:45;;;;;;;3.28;2.22;;;;;;;;;;4949901;28;20097;-81
2021/07/26 08:34:10;;;;;;;4.78;2.40;;;;;;;;;;4939928;28;20023;-81
2021/07/26 08:36:36;;;;;;;3.47;2.10;;;;;;;;;;4938942;28;20057;-81
2021/07/26 08:39:02;;;;;;;3.72;2.30;;;;;;;;;;4933468;28;20444;-81
2021/07/26 08:41:27;;;;;;;4.82;2.30;;;;;;;;;;4950245;28;20053;-81
2021/07/26 08:43:52;;;;;;;3.63;2.40;;;;;;;;;;4942120;28;20114;-81
2021/07/26 08:46:18;;;;;;;3.72;2.25;;;;;;;;;;4972687;28;20029;-81
2021/07/26 08:48:45;;;;;;;4.25;2.30;;;;;;;;;;4946052;28;20169;-81
2021/07/26 08:51:11;;;;;;;3.50;2.30;;;;;;;;;;4957645;28;20172;-82
2021/07/26 08:53:37;;;;;;;4.03;2.45;;;;;;;;;;4960013;28;20039;-81
2021/07/26 08:56:02;;;;;;;4.45;2.33;;;;;;;;;;4961081;28;20049;-82
2021/07/26 08:58:28;;;;;;;6.10;2.63;;;;;;;;;;4960410;28;20034;-82
2021/07/26 09:00:54;;;;;;;4.97;2.43;;;;;;;;;;4961043;28;21413;-80
2021/07/26 09:03:19;;;;;;;3.92;2.20;;;;;;;;;;4957608;28;21261;-81
2021/07/26 09:05:45;;;;;;;3.90;2.00;;;;;;;;;;4942090;28;20846;-81
2021/07/26 09:08:10;;;;;;;4.13;2.50;;;;;;;;;;4961833;28;21524;-81
2021/07/26 09:10:36;;;;;;;3.57;2.10;;;;;;;;;;4945317;28;20030;-81
2021/07/26 09:13:02;;;;;;;3.60;2.20;;;;;;;;;;4933528;28;20156;-81
2021/07/26 09:15:33;;;;;;;4.53;2.10;;;;;;;;;;4958219;28;20125;-81
2021/07/26 09:18:00;;;;;;;4.57;2.30;;;;;;;;;;4963815;28;20158;-82
2021/07/26 09:20:29;;;;;;;4.75;2.22;;;;;;;;;;4969902;28;20023;-80
2021/07/26 09:22:56;;;;;;;3.90;2.30;;;;;;;;;;4955810;28;20041;-81
2021/07/26 09:25:21;;;;;;;3.63;2.20;;;;;;;;;;4962818;28;20027;-81
2021/07/26 09:27:57;;;;;;;3.70;2.20;;;;;;;;;;4951553;28;20029;-80
2021/07/26 09:30:22;;;;;;;3.22;2.10;;;;;;;;;;4964733;28;20053;-82
2021/07/26 09:32:48;;;;;;;4.07;2.40;;;;;;;;;;4937941;28;20021;-82
2021/07/26 09:35:13;;;;;;;5.50;2.50;;;;;;;;;;4978904;28;20687;-80
2021/07/26 09:37:40;;;;;;;3.53;2.17;;;;;;;;;;4972856;28;20031;-81
2021/07/26 09:40:22;;;;;;;5.35;2.40;;;;;;;;;;4952351;28;20644;-81
2021/07/26 09:42:48;;;;;;;3.13;2.08;;;;;;;;;;4956136;28;20113;-81
2021/07/26 09:45:25;;;;;;;3.90;2.20;;;;;;;;;;4965909;28;20047;-81
2021/07/26 09:48:10;;;;;;;4.20;2.50;;;;;;;;;;4962387;28;20035;-80
2021/07/26 09:50:37;;;;;;;3.25;2.15;;;;;;;;;;4967358;28;20037;-80
2021/07/26 09:53:10;;;;;;;4.00;2.40;;;;;;;;;;4935894;28;20041;-80
2021/07/26 09:55:36;;;;;;;4.20;2.30;;;;;;;;;;4959144;28;20030;-81
2021/07/26 09:58:02;;;;;;;4.47;2.20;;;;;;;;;;4944491;28;20042;-81
2021/07/26 10:00:32;;;;;;;4.13;2.17;;;;;;;;;;4946186;28;20287;-81
2021/07/26 10:02:57;;;;;;;3.92;2.03;;;;;;;;;;4937234;28;20041;-81
2021/07/26 10:05:26;;;;;;;4.57;2.10;;;;;;;;;;4956026;28;20026;-79
2021/07/26 10:07:52;;;;;;;3.63;2.10;;;;;;;;;;4940106;28;20061;-80
2021/07/26 10:10:17;;;;;;;4.50;2.10;;;;;;;;;;4941676;28;20042;-80
2021/07/26 10:12:44;;;;;;;3.13;2.03;;;;;;;;;;4948252;28;20022;-80
2021/07/26 10:15:10;;;;;;;2.95;2.00;;;;;;;;;;4970065;28;20030;-81
2021/07/26 10:17:37;;;;;;;4.33;2.07;;;;;;;;;;4952734;28;20038;-80
2021/07/26 10:20:03;;;;;;;3.85;2.20;;;;;;;;;;4941334;28;20102;-81
2021/07/26 10:22:28;;;;;;;3.07;2.17;;;;;;;;;;4954482;28;20029;-81
2021/07/26 10:25:09;;;;;;;3.83;2.17;;;;;;;;;;4949004;28;20057;-81
2021/07/26 10:27:36;;;;;;;4.35;2.10;;;;;;;;;;4951005;28;20035;-82
2021/07/26 10:30:02;;;;;;;3.00;2.08;;;;;;;;;;4952213;28;21414;-80
2021/07/26 10:32:31;;;;;;;3.85;2.28;;;;;;;;;;4944580;28;20054;-79
2021/07/26 10:34:57;;;;;;;3.55;2.10;;;;;;;;;;4933807;28;20751;-79
2021/07/26 10:37:41;;;;;;;4.37;2.27;;;;;;;;;;4947430;28;20022;-80
2021/07/26 10:40:29;;;;;;;3.25;2.20;;;;;;;;;;4948864;28;20034;-80
2021/07/26 10:43:00;;;;;;;3.75;2.20;;;;;;;;;;4951565;28;20046;-80
2021/07/26 10:45:32;;;;;;;2.75;2.00;;;;;;;;;;4951472;28;20061;-80
2021/07/26 10:48:16;;;;;;;3.30;2.15;;;;;;;;;;4953904;28;20034;-79
2021/07/26 10:50:44;;;;;;;3.03;1.92;;;;;;;;;;4951797;28;20035;-79
2021/07/26 10:53:10;;;;;;;5.68;2.03;;;;;;;;;;4954142;28;20019;-80
2021/07/26 10:56:15;;;;;;;2.50;1.90;;;;;;;;;;4937840;28;20044;-80
2021/07/26 10:58:41;;;;;;;3.50;2.13;;;;;;;;;;4909061;29;20162;-79
2021/07/26 11:01:25;;;;;;;4.27;2.30;;;;;;;;;;4909108;29;20046;-81
2021/07/26 11:04:08;;;;;;;3.03;2.00;;;;;;;;;;4931195;28;20049;-80
2021/07/26 11:06:54;;;;;;;7.28;2.42;;;;;;;;;;4966063;28;20037;-80
2021/07/26 11:09:40;;;;;;;2.92;2.03;;;;;;;;;;4968229;28;20133;-80
2021/07/26 11:12:36;;;;;;;3.28;2.00;;;;;;;;;;4965706;28;20045;-80
2021/07/26 11:15:29;;;;;;;3.28;2.00;;;;;;;;;;4966617;28;20058;-80
2021/07/26 11:18:19;;;;;;;3.80;2.00;;;;;;;;;;4953117;28;20066;-80
2021/07/26 11:21:12;;;;;;;2.83;1.85;;;;;;;;;;4950889;28;20034;-79
2021/07/26 11:23:39;;;;;;;4.93;2.08;;;;;;;;;;4929394;28;20046;-81
2021/07/26 11:26:11;;;;;;;3.35;1.95;;;;;;;;;;4947252;28;20049;-80
2021/07/26 11:28:37;;;;;;;4.25;2.00;;;;;;;;;;4951003;28;20063;-81
2021/07/26 11:31:05;;;;;;;4.87;2.23;;;;;;;;;;4949284;28;20030;-79
2021/07/26 11:33:33;;;;;;;2.63;1.85;;;;;;;;;;4951095;28;20034;-80
2021/07/26 11:36:06;;;;;;;4.90;2.10;;;;;;;;;;4965444;28;20053;-80
2021/07/26 11:38:32;;;;;;;2.55;1.80;;;;;;;;;;4951788;28;20059;-81
2021/07/26 11:40:59;;;;;;;2.87;1.80;;;;;;;;;;4970034;28;20038;-79
2021/07/26 11:43:34;;;;;;;3.42;1.85;;;;;;;;;;4971955;28;20035;-81
2021/07/26 11:46:00;;;;;;;3.30;1.88;;;;;;;;;;4969479;28;20029;-81
2021/07/26 11:48:28;;;;;;;3.90;2.10;;;;;;;;;;4968931;28;20050;-80
2021/07/26 11:50:54;;;;;;;4.18;2.40;;;;;;;;;;4967932;28;20026;-80
2021/07/26 11:53:31;;;;;;;3.63;2.08;;;;;;;;;;4968716;28;20044;-80
2021/07/26 11:55:57;;;;;;;3.13;2.10;;;;;;;;;;4948159;28;20027;-79
2021/07/26 11:58:26;;;;;;;3.28;1.95;;;;;;;;;;4968230;28;21453;-80
2021/07/26 12:00:53;;;;;;;2.88;1.73;;;;;;;;;;4935174;28;20130;-80
2021/07/26 12:03:19;;;;;;;3.35;1.88;;;;;;;;;;4951793;28;20140;-80
2021/07/26 12:05:44;;;;;;;;;;;;;;;;;;4950401;28;20069;-80
2021/07/26 12:08:16;;;;;;;2.93;1.90;;;;;;;;;;4970572;28;19926;-80
2021/07/26 12:10:42;;;;;;;3.03;1.90;;;;;;;;;;4939719;28;20324;-79
2021/07/26 12:13:16;;;;;;;2.65;1.80;;;;;;;;;;4942144;28;20022;-80
2021/07/26 12:15:45;;;;;;;3.05;1.77;;;;;;;;;;4943359;28;20057;-81
2021/07/26 12:18:11;;;;;;;3.35;1.90;;;;;;;;;;4955978;28;20054;-80
2021/07/26 12:20:41;;;;;;;2.42;1.73;;;;;;;;;;4970657;28;20031;-80
2021/07/26 12:23:10;;;;;;;3.58;1.90;;;;;;;;;;4963810;28;20862;-80
2021/07/26 12:25:41;;;;;;;3.47;1.90;;;;;;;;;;4982633;28;20090;-80
2021/07/26 12:28:06;;;;;;;3.65;2.10;;;;;;;;;;4985556;28;20141;-79
2021/07/26 12:30:36;;;;;;;3.37;1.80;;;;;;;;;;4976051;28;20050;-80
2021/07/26 12:33:02;;;;;;;3.65;1.80;;;;;;;;;;4983582;28;20042;-79
2021/07/26 12:35:28;;;;;;;3.28;1.80;;;;;;;;;;4999656;28;20030;-78
2021/07/26 12:38:20;;;;;;;4.47;2.10;;;;;;;;;;4967681;28;20054;-79
2021/07/26 12:41:03;;;;;;;3.78;1.80;;;;;;;;;;4984435;28;20027;-79
2021/07/26 12:43:28;;;;;;;2.45;1.70;;;;;;;;;;4999589;28;20098;-79
2021/07/26 12:45:58;;;;;;;4.80;1.93;;;;;;;;;;4956904;28;20117;-80
2021/07/26 12:48:24;;;;;;;5.03;2.20;;;;;;;;;;4964521;28;20049;-78
2021/07/26 12:50:50;;;;;;;6.20;2.10;;;;;;;;;;4948838;28;20062;-80
2021/07/26 12:53:16;;;;;;;2.80;1.80;;;;;;;;;;4951199;28;20038;-78
2021/07/26 12:55:42;;;;;;;2.37;1.63;;;;;;;;;;4954621;28;20162;-79
2021/07/26 12:58:08;;;;;;;5.57;2.13;;;;;;;;;;4952054;28;20042;-80
2021/07/26 13:00:34;;;;;;;3.22;2.05;;;;;;;;;;4978528;28;20026;-80
2021/07/26 13:03:01;;;;;;;4.72;2.22;;;;;;;;;;4967138;28;20644;-78
2021/07/26 13:05:26;;;;;;;8.00;2.28;;;;;;;;;;4971145;28;20039;-80
2021/07/26 13:07:51;;;;;;;10.68;2.25;;;;;;;;;;4953515;28;20066;-79
2021/07/26 13:10:17;;;;;;;4.38;2.25;;;;;;;;;;4948994;28;20041;-80
2021/07/26 13:12:42;;;;;;;5.03;2.05;;;;;;;;;;4939495;28;20032;-80
2021/07/26 13:15:08;;;;;;;6.80;2.33;;;;;;;;;;4979124;28;20806;-80
2021/07/26 13:17:33;;;;;;;3.83;1.98;;;;;;;;;;4945094;28;20920;-80
2021/07/26 13:19:59;;;;;;;4.05;1.92;;;;;;;;;;4961163;28;20045;-80
2021/07/26 13:22:24;;;;;;;4.00;2.20;;;;;;;;;;4977954;28;20089;-80
2021/07/26 13:24:49;;;;;;;3.65;1.95;;;;;;;;;;4957435;28;20717;-80
2021/07/26 13:27:15;;;;;;;3.63;2.00;;;;;;;;;;4967157;28;20033;-79
2021/07/26 13:29:40;;;;;;;3.83;2.10;;;;;;;;;;4966515;28;20030;-78
2021/07/26 13:32:05;;;;;;;4.80;2.17;;;;;;;;;;4983649;28;20030;-79
2021/07/26 13:34:31;;;;;;;3.78;2.10;;;;;;;;;;4953600;28;20026;-80
2021/07/26 13:36:59;;;;;;;4.80;2.30;;;;;;;;;;4945288;28;20034;-79
2021/07/26 13:39:25;;;;;;;4.70;2.25;;;;;;;;;;4959992;28;20040;-80
2021/07/26 13:41:55;;;;;;;3.90;2.30;;;;;;;;;;4964107;28;20026;-79
2021/07/26 13:44:21;;;;;;;3.97;2.13;;;;;;;;;;4956942;28;20034;-80
2021/07/26 13:46:46;;;;;;;3.08;1.77;;;;;;;;;;4957864;28;20042;-79
2021/07/26 13:49:12;;;;;;;3.95;1.98;;;;;;;;;;4967042;28;20117;-79
2021/07/26 13:51:37;;;;;;;3.13;1.98;;;;;;;;;;4932978;28;20030;-80
2021/07/26 13:54:02;;;;;;;3.40;2.00;;;;;;;;;;4952939;28;20034;-79
2021/07/26 13:56:28;;;;;;;3.92;2.25;;;;;;;;;;4966338;28;20081;-79
2021/07/26 13:58:53;;;;;;;4.22;2.10;;;;;;;;;;4947161;28;20057;-79
2021/07/26 14:01:18;;;;;;;3.73;2.00;;;;;;;;;;4932575;28;20934;-79
2021/07/26 14:03:44;;;;;;;3.97;2.37;;;;;;;;;;4947898;28;20508;-82
2021/07/26 14:06:09;;;;;;;3.27;2.07;;;;;;;;;;4949376;28;20211;-80
2021/07/26 14:08:34;;;;;;;3.80;1.97;;;;;;;;;;4947730;28;20042;-79
2021/07/26 14:11:00;;;;;;;3.27;1.90;;;;;;;;;;4943396;28;20032;-80
2021/07/26 14:13:25;;;;;;;3.23;1.90;;;;;;;;;;4948478;28;20844;-80
2021/07/26 14:15:50;;;;;;;3.00;1.93;;;;;;;;;;4930081;28;20136;-78
2021/07/26 14:18:16;;;;;;;3.72;1.98;;;;;;;;;;4942872;28;20084;-80
2021/07/26 14:20:41;;;;;;;4.47;2.30;;;;;;;;;;4945991;28;20061;-80
2021/07/26 14:23:07;;;;;;;5.97;2.20;;;;;;;;;;4930229;28;20042;-79
2021/07/26 14:25:34;;;;;;;3.97;2.03;;;;;;;;;;4962643;28;20036;-80
2021/07/26 14:27:59;;;;;;;;;;;;;;;;;;4953545;28;20031;-80
2021/07/26 14:30:24;;;;;;;3.27;2.00;;;;;;;;;;4968135;28;19914;-82
2021/07/26 14:32:50;;;;;;;2.78;1.83;;;;;;;;;;4972679;28;20790;-81
2021/07/26 14:35:15;;;;;;;3.05;2.00;;;;;;;;;;4986757;28;20025;-82
2021/07/26 14:37:40;;;;;;;3.40;2.10;;;;;;;;;;4987170;28;20042;-81
2021/07/26 14:40:06;;;;;;;2.65;1.85;;;;;;;;;;4958378;28;20022;-80
2021/07/26 14:42:31;;;;;;;2.53;1.80;;;;;;;;;;4977776;28;20088;-80
2021/07/26 14:44:57;;;;;;;2.05;1.60;;;;;;;;;;4981183;28;20468;-80
2021/07/26 14:47:22;;;;;;;2.30;1.57;;;;;;;;;;5003704;28;20040;-80
2021/07/26 14:49:47;;;;;;;2.22;1.63;;;;;;;;;;5005612;28;20026;-81
2021/07/26 14:52:13;;;;;;;2.22;1.50;;;;;;;;;;5009774;28;20049;-81
2021/07/26 14:54:38;;;;;;;2.25;1.50;;;;;;;;;;4996141;28;20638;-80
2021/07/26 14:57:04;;;;;;;2.33;1.60;;;;;;;;;;5010306;28;20082;-80
2021/07/26 14:59:31;;;;;;;3.42;1.67;;;;;;;;;;4981404;28;20062;-80